createdAt,value
2023-03-30T00:01:05.301Z,-64
2023-03-30T00:06:07.315Z,-64
2023-03-30T00:11:08.593Z,-64
2023-03-30T00:16:09.851Z,-64
2023-03-30T00:21:11.076Z,-64
2023-03-30T00:26:13.045Z,-64
2023-03-30T00:31:14.247Z,-64
2023-03-30T00:36:15.728Z,-64
2023-03-30T00:41:17.782Z,-64
2023-03-30T00:46:18.998Z,-64
2023-03-30T00:51:20.414Z,-63
2023-03-30T00:56:22.936Z,-64
2023-03-30T01:01:28.696Z,-64
2023-03-30T01:06:31.599Z,-64
2023-03-30T01:11:32.845Z,-64
2023-03-30T01:16:35.075Z,-64
2023-03-30T01:21:36.255Z,-64
2023-03-30T01:26:38.044Z,-64
2023-03-30T01:31:39.317Z,-64
2023-03-30T01:36:41.714Z,-64
2023-03-30T01:41:42.963Z,-64
2023-03-30T01:46:45.011Z,-64
2023-03-30T01:51:46.323Z,-64
2023-03-30T01:56:47.561Z,-64
2023-03-30T02:01:50.461Z,-64
2023-03-30T02:06:51.769Z,-64
2023-03-30T02:11:53.835Z,-64
2023-03-30T02:16:55.066Z,-64
2023-03-30T02:21:56.301Z,-64
2023-03-30T02:26:57.536Z,-64
2023-03-30T02:31:58.726Z,-64
2023-03-30T02:37:00.302Z,-64
2023-03-30T02:42:01.589Z,-64
2023-03-30T02:47:02.751Z,-63
2023-03-30T02:52:03.945Z,-64
2023-03-30T02:57:05.178Z,-64
2023-03-30T03:02:06.856Z,-64
2023-03-30T03:07:08.105Z,-64
2023-03-30T03:12:09.379Z,-64
2023-03-30T03:17:10.655Z,-64
2023-03-30T03:22:12.013Z,-63
2023-03-30T03:27:13.138Z,-64
2023-03-30T03:32:14.334Z,-64
2023-03-30T03:37:15.536Z,-64
2023-03-30T03:42:16.763Z,-64
2023-03-30T03:47:18.201Z,-64
2023-03-30T03:52:19.401Z,-64
2023-03-30T03:57:23.770Z,-64
2023-03-30T04:02:25.190Z,-64
2023-03-30T04:07:26.511Z,-64
2023-03-30T04:12:27.642Z,-64
2023-03-30T04:17:28.883Z,-64
2023-03-30T04:22:33.343Z,-64
2023-03-30T04:27:34.548Z,-64
2023-03-30T04:32:38.641Z,-63
2023-03-30T04:37:42.037Z,-64
2023-03-30T04:42:49.934Z,-64
2023-03-30T04:47:51.311Z,-65
2023-03-30T04:52:52.517Z,-64
2023-03-30T04:57:53.658Z,-64
2023-03-30T05:02:54.934Z,-64
2023-03-30T05:07:56.223Z,-64
2023-03-30T05:12:57.496Z,-64
2023-03-30T05:17:58.755Z,-64
2023-03-30T05:23:00.312Z,-64
2023-03-30T05:28:02.148Z,-64
2023-03-30T05:33:03.421Z,-64
2023-03-30T05:38:04.707Z,-64
2023-03-30T05:43:06.170Z,-65
2023-03-30T05:48:07.436Z,-68
2023-03-30T05:53:08.622Z,-65
2023-03-30T05:58:09.819Z,-65
2023-03-30T06:03:11.156Z,-67
2023-03-30T06:08:13.435Z,-66
2023-03-30T06:13:14.639Z,-64
2023-03-30T06:18:15.973Z,-66
2023-03-30T06:23:17.208Z,-67
2023-03-30T06:28:18.334Z,-64
2023-03-30T06:33:19.699Z,-65
2023-03-30T06:38:21.196Z,-66
2023-03-30T06:43:22.407Z,-67
2023-03-30T06:48:26.741Z,-66
2023-03-30T06:53:28.284Z,-68
2023-03-30T06:58:29.587Z,-65
2023-03-30T07:03:30.902Z,-65
2023-03-30T07:08:32.128Z,-64
2023-03-30T07:13:33.324Z,-65
2023-03-30T07:18:34.512Z,-65
2023-03-30T07:23:35.889Z,-66
2023-03-30T07:28:43.309Z,-64
2023-03-30T07:33:44.503Z,-65
2023-03-30T07:38:46.179Z,-66
2023-03-30T07:43:47.402Z,-65
2023-03-30T07:48:48.610Z,-66
2023-03-30T07:53:49.891Z,-65
2023-03-30T07:58:51.068Z,-65
2023-03-30T08:03:52.374Z,-64
2023-03-30T08:08:53.667Z,-64
2023-03-30T08:13:54.827Z,-65
2023-03-30T08:18:56.478Z,-65
2023-03-30T08:23:58.917Z,-64
2023-03-30T08:29:00.431Z,-65
2023-03-30T08:34:03.499Z,-65
2023-03-30T08:39:05.112Z,-64
2023-03-30T08:44:06.684Z,-65
2023-03-30T08:49:07.867Z,-65
2023-03-30T08:54:09.074Z,-65
2023-03-30T08:59:10.532Z,-65
2023-03-30T09:04:11.714Z,-65
2023-03-30T09:09:13.161Z,-65
2023-03-30T09:14:14.329Z,-65
2023-03-30T09:19:16.338Z,-66
2023-03-30T09:24:17.520Z,-65
2023-03-30T09:29:19.239Z,-64
2023-03-30T09:34:20.454Z,-65
2023-03-30T09:39:21.608Z,-65
2023-03-30T09:44:22.793Z,-65
2023-03-30T09:49:23.928Z,-66
2023-03-30T09:54:26.102Z,-68
2023-03-30T09:59:28.317Z,-66
2023-03-30T10:04:29.492Z,-67
2023-03-30T10:09:30.709Z,-67
2023-03-30T10:14:32.017Z,-68
2023-03-30T10:19:34.384Z,-67
2023-03-30T10:24:37.402Z,-67
2023-03-30T10:29:38.585Z,-66
2023-03-30T10:34:39.776Z,-67
2023-03-30T10:39:41.071Z,-67
2023-03-30T10:44:42.282Z,-66
2023-03-30T10:49:43.433Z,-66
2023-03-30T10:54:44.585Z,-66
2023-03-30T10:59:45.764Z,-66
2023-03-30T11:04:47.286Z,-66
2023-03-30T11:09:48.496Z,-65
2023-03-30T11:14:49.679Z,-64
2023-03-30T11:19:51.277Z,-65
2023-03-30T11:24:52.556Z,-65
2023-03-30T11:29:53.759Z,-65
2023-03-30T11:34:54.975Z,-65
2023-03-30T11:39:56.249Z,-65
2023-03-30T11:44:57.454Z,-65
2023-03-30T11:49:58.626Z,-66
2023-03-30T11:55:03.707Z,-66
2023-03-30T12:00:09.704Z,-65
2023-03-30T12:05:11.244Z,-65
2023-03-30T12:10:12.422Z,-65
2023-03-30T12:15:13.630Z,-64
2023-03-30T12:20:14.802Z,-65
2023-03-30T12:25:16.029Z,-67
2023-03-30T12:30:17.344Z,-68
2023-03-30T12:35:18.604Z,-72
2023-03-30T12:40:26.055Z,-73
2023-03-30T12:45:27.277Z,-72
2023-03-30T12:50:28.560Z,-72
2023-03-30T12:55:29.825Z,-71
2023-03-30T13:00:31.020Z,-70
2023-03-30T13:05:32.225Z,-70
2023-03-30T13:10:35.201Z,-70
2023-03-30T13:15:36.418Z,-69
2023-03-30T13:20:37.671Z,-69
2023-03-30T13:25:39.468Z,-71
2023-03-30T13:30:40.782Z,-71
2023-03-30T13:35:42.040Z,-70
2023-03-30T13:40:57.783Z,-69
2023-03-30T13:46:13.856Z,-69
2023-03-30T13:51:17.241Z,-69
2023-03-30T13:56:18.370Z,-70
2023-03-30T14:01:19.628Z,-69
2023-03-30T14:06:21.245Z,-69
2023-03-30T14:11:22.505Z,-68
2023-03-30T14:16:23.759Z,-68
2023-03-30T14:21:25.185Z,-67
2023-03-30T14:26:26.724Z,-68
2023-03-30T14:31:28.029Z,-65
2023-03-30T14:36:29.296Z,-65
2023-03-30T14:41:31.486Z,-67
2023-03-30T14:46:32.695Z,-66
2023-03-30T14:51:34.148Z,-67
2023-03-30T14:56:35.551Z,-65
2023-03-30T15:01:36.747Z,-66
2023-03-30T15:06:38.138Z,-65
2023-03-30T15:11:39.665Z,-65
2023-03-30T15:16:41.139Z,-66
2023-03-30T15:21:43.173Z,-68
2023-03-30T15:26:44.357Z,-68
2023-03-30T15:31:45.660Z,-67
2023-03-30T15:36:46.839Z,-66
2023-03-30T15:41:48.039Z,-65
2023-03-30T15:46:49.333Z,-68
2023-03-30T15:51:51.733Z,-65
2023-03-30T15:56:53.061Z,-65
2023-03-30T16:01:54.471Z,-66
2023-03-30T16:06:55.761Z,-65
2023-03-30T16:11:57.168Z,-70
2023-03-30T16:16:58.373Z,-68
2023-03-30T16:21:59.541Z,-67
2023-03-30T16:27:01.381Z,-67
2023-03-30T16:32:02.608Z,-68
2023-03-30T16:37:03.944Z,-65
2023-03-30T16:42:05.317Z,-66
2023-03-30T16:47:07.204Z,-65
2023-03-30T16:52:08.777Z,-69
2023-03-30T16:57:10.292Z,-68
2023-03-30T17:02:14.830Z,-65
2023-03-30T17:07:18.102Z,-65
2023-03-30T17:12:19.304Z,-64
2023-03-30T17:17:21.495Z,-65
2023-03-30T17:22:22.863Z,-64
2023-03-30T17:27:25.828Z,-65
2023-03-30T17:32:26.969Z,-65
2023-03-30T17:37:28.172Z,-66
2023-03-30T17:42:29.351Z,-65
2023-03-30T17:47:30.637Z,-65
2023-03-30T17:52:31.858Z,-65
2023-03-30T17:57:33.088Z,-65
2023-03-30T18:02:34.363Z,-64
2023-03-30T18:07:35.629Z,-64
2023-03-30T18:12:36.847Z,-67
2023-03-30T18:17:38.129Z,-65
2023-03-30T18:22:39.371Z,-67
2023-03-30T18:27:42.734Z,-66
2023-03-30T18:32:47.408Z,-67
2023-03-30T18:37:48.889Z,-68
2023-03-30T18:42:50.177Z,-70
2023-03-30T18:47:51.483Z,-67
2023-03-30T18:52:52.772Z,-67
2023-03-30T18:57:53.982Z,-66
2023-03-30T19:02:56.543Z,-66
2023-03-30T19:07:57.840Z,-66
2023-03-30T19:12:59.069Z,-67
2023-03-30T19:18:00.581Z,-67
2023-03-30T19:23:01.775Z,-66
2023-03-30T19:28:04.248Z,-67
2023-03-30T19:33:05.754Z,-64
2023-03-30T19:38:06.939Z,-68
2023-03-30T19:43:08.385Z,-67
2023-03-30T19:48:10.575Z,-64
2023-03-30T19:53:11.798Z,-66
2023-03-30T19:58:13.068Z,-65
2023-03-30T20:03:14.513Z,-68
2023-03-30T20:08:23.931Z,-67
2023-03-30T20:13:27.195Z,-64
2023-03-30T20:18:30.883Z,-68
2023-03-30T20:23:32.125Z,-64
2023-03-30T20:28:33.348Z,-64
2023-03-30T20:33:34.680Z,-64
2023-03-30T20:38:39.525Z,-64
2023-03-30T20:43:55.699Z,-65
2023-03-30T20:49:01.788Z,-64
2023-03-30T20:54:03.206Z,-64
2023-03-30T20:59:04.444Z,-64
2023-03-30T21:04:05.725Z,-68
2023-03-30T21:09:07.099Z,-64
2023-03-30T21:14:08.556Z,-64
2023-03-30T21:19:09.794Z,-65
2023-03-30T21:24:11.020Z,-64
2023-03-30T21:29:12.310Z,-64
2023-03-30T21:34:14.544Z,-64
2023-03-30T21:39:15.830Z,-63
2023-03-30T21:44:17.063Z,-64
2023-03-30T21:49:18.265Z,-63
2023-03-30T21:54:19.567Z,-64
2023-03-30T21:59:20.704Z,-63
2023-03-30T22:04:21.944Z,-64
2023-03-30T22:09:23.152Z,-63
2023-03-30T22:14:24.408Z,-64
2023-03-30T22:19:25.651Z,-64
2023-03-30T22:24:26.875Z,-64
2023-03-30T22:29:28.057Z,-64
2023-03-30T22:34:29.296Z,-63
2023-03-30T22:39:30.537Z,-63
2023-03-30T22:44:31.718Z,-64
2023-03-30T22:49:32.907Z,-63
2023-03-30T22:54:34.199Z,-63
2023-03-30T22:59:35.659Z,-63
2023-03-30T23:04:36.887Z,-64
2023-03-30T23:09:38.620Z,-63
2023-03-30T23:14:39.862Z,-64
2023-03-30T23:19:41.062Z,-63
2023-03-30T23:24:42.215Z,-63
2023-03-30T23:29:43.416Z,-64
2023-03-30T23:34:44.624Z,-64
2023-03-30T23:39:45.932Z,-64
2023-03-30T23:44:47.149Z,-63
2023-03-30T23:49:48.367Z,-64
2023-03-30T23:54:52.370Z,-63
2023-03-30T23:59:53.644Z,-64
